Time;durP1;ratioP1;P1;durP2;ratioP2;P2;SDS_P1;SDS_P2;PMS_P1;PMS_P2;Temp;Humidity;BMP_temperature;BMP_pressure;BME280_temperature;BME280_humidity;BME280_pressure;Samples;Min_cycle;Max_cycle;Signal;HPM_P1;HPM_P2
2021/08/08 00:00:56;;;;;;;2.75;1.02;;;16.10;99.90;;;;;;5075443;28;20113;-91
2021/08/08 00:03:23;;;;;;;2.42;1.30;;;16.20;99.90;;;;;;5074715;28;20397;-91
2021/08/08 00:05:50;;;;;;;2.70;1.20;;;16.20;99.90;;;;;;5074851;28;20040;-92
2021/08/08 00:08:20;;;;;;;2.40;0.93;;;16.30;99.90;;;;;;5074313;28;20135;-92
2021/08/08 00:10:48;;;;;;;1.75;1.00;;;16.30;99.90;;;;;;5074733;28;20048;-92
2021/08/08 00:13:15;;;;;;;1.17;0.70;;;16.40;99.90;;;;;;5074450;28;20440;-93
2021/08/08 00:15:42;;;;;;;1.58;0.90;;;16.50;99.90;;;;;;5075006;28;20055;-92
2021/08/08 00:18:09;;;;;;;1.63;1.10;;;16.50;99.90;;;;;;5076384;28;20059;-92
2021/08/08 00:20:36;;;;;;;2.25;1.38;;;16.60;99.90;;;;;;5077809;28;20078;-91
2021/08/08 00:23:03;;;;;;;1.30;0.90;;;16.60;99.90;;;;;;5078543;28;20072;-91
2021/08/08 00:25:31;;;;;;;4.60;0.90;;;16.70;99.90;;;;;;5074517;28;20052;-91
2021/08/08 00:27:58;;;;;;;7.13;1.48;;;16.70;99.90;;;;;;5074085;28;20139;-92
2021/08/08 00:30:25;;;;;;;2.67;0.82;;;16.70;99.90;;;;;;5074148;28;20072;-92
2021/08/08 00:32:52;;;;;;;1.02;0.93;;;16.70;99.90;;;;;;5074340;28;20410;-91
2021/08/08 00:35:19;;;;;;;0.88;0.88;;;16.70;99.90;;;;;;5073789;28;20623;-91
2021/08/08 00:37:48;;;;;;;2.03;0.93;;;16.70;99.90;;;;;;5074075;28;20058;-91
2021/08/08 00:40:19;;;;;;;2.00;0.75;;;16.50;99.90;;;;;;5074587;28;20098;-91
2021/08/08 00:42:46;;;;;;;1.38;0.93;;;16.30;99.90;;;;;;5075649;28;20144;-91
2021/08/08 00:45:19;;;;;;;0.98;0.90;;;16.30;99.90;;;;;;5074904;28;20491;-91
2021/08/08 00:47:46;;;;;;;0.80;0.80;;;16.30;99.90;;;;;;5073755;28;20135;-91
2021/08/08 00:50:15;;;;;;;3.13;0.88;;;16.30;99.90;;;;;;5073623;28;20059;-91
2021/08/08 00:52:42;;;;;;;1.00;0.90;;;16.40;99.90;;;;;;5074027;28;20060;-90
2021/08/08 00:55:11;;;;;;;1.23;1.02;;;16.50;99.90;;;;;;5073820;28;20067;-92
2021/08/08 00:57:38;;;;;;;1.27;0.80;;;16.50;99.90;;;;;;5074163;28;20048;-91
2021/08/08 01:00:06;;;;;;;3.03;0.90;;;16.50;99.90;;;;;;5073732;28;20139;-91
2021/08/08 01:02:35;;;;;;;1.83;0.90;;;16.60;99.90;;;;;;5073424;28;20052;-90
2021/08/08 01:05:08;;;;;;;3.78;1.00;;;16.60;99.90;;;;;;5073548;28;20056;-92
2021/08/08 01:08:01;;;;;;;0.90;0.90;;;16.60;99.90;;;;;;5073998;28;20469;-91
2021/08/08 01:10:27;;;;;;;6.57;1.15;;;16.50;99.90;;;;;;5073444;28;20134;-90
2021/08/08 01:12:55;;;;;;;2.15;1.02;;;16.40;99.90;;;;;;5073478;28;20131;-91
2021/08/08 01:15:22;;;;;;;6.40;1.35;;;16.40;99.90;;;;;;5073039;28;20060;-91
2021/08/08 01:17:51;;;;;;;5.43;1.10;;;16.40;99.90;;;;;;5073475;28;20507;-93
2021/08/08 01:20:19;;;;;;;1.60;0.70;;;16.30;99.90;;;;;;5072925;28;20056;-92
2021/08/08 01:22:50;;;;;;;0.80;0.80;;;16.30;99.90;;;;;;5073955;28;20051;-94
2021/08/08 01:25:19;;;;;;;1.58;0.70;;;16.20;99.90;;;;;;5072917;28;20052;-89
2021/08/08 01:27:46;;;;;;;3.25;1.05;;;16.20;99.90;;;;;;5073089;28;20552;-90
2021/08/08 01:30:17;;;;;;;1.00;0.88;;;16.20;99.90;;;;;;5073064;28;20052;-91
2021/08/08 01:32:44;;;;;;;1.98;0.93;;;16.20;99.90;;;;;;5074089;28;20477;-93
2021/08/08 01:35:12;;;;;;;2.00;0.85;;;16.30;99.90;;;;;;5075655;28;20062;-93
2021/08/08 01:37:39;;;;;;;4.72;0.85;;;16.30;99.90;;;;;;5075504;28;20136;-93
2021/08/08 01:40:37;;;;;;;1.02;0.90;;;16.30;99.90;;;;;;5073201;28;20132;-91
2021/08/08 01:43:09;;;;;;;1.23;1.13;;;16.40;99.90;;;;;;5072304;28;20140;-91
2021/08/08 01:45:39;;;;;;;0.75;0.75;;;16.30;99.90;;;;;;5072963;28;20553;-92
2021/08/08 01:48:09;;;;;;;2.40;0.90;;;16.30;99.90;;;;;;5072948;28;20144;-90
2021/08/08 01:50:36;;;;;;;1.00;0.80;;;16.30;99.90;;;;;;5072713;28;20058;-93
2021/08/08 01:53:03;;;;;;;1.40;0.70;;;16.40;99.90;;;;;;5073290;28;20139;-92
2021/08/08 01:55:31;;;;;;;1.65;0.80;;;16.40;99.90;;;;;;5072990;28;20051;-91
2021/08/08 01:57:58;;;;;;;1.13;0.80;;;16.50;99.90;;;;;;5073002;28;20135;-91
2021/08/08 02:00:26;;;;;;;0.73;0.65;;;16.60;99.90;;;;;;5073239;28;20055;-92
2021/08/08 02:02:55;;;;;;;4.28;0.90;;;16.60;99.90;;;;;;5072174;28;20052;-91
2021/08/08 02:05:25;;;;;;;1.77;0.80;;;16.60;99.90;;;;;;5073026;28;20048;-91
2021/08/08 02:07:52;;;;;;;0.88;0.50;;;16.50;99.90;;;;;;5072790;28;20051;-93
2021/08/08 02:10:20;;;;;;;0.88;0.77;;;16.40;99.90;;;;;;5072607;28;20497;-92
2021/08/08 02:12:47;;;;;;;0.80;0.80;;;16.40;99.90;;;;;;5072817;28;20143;-91
2021/08/08 02:15:14;;;;;;;1.45;0.73;;;16.40;99.90;;;;;;5073465;28;20135;-94
2021/08/08 02:17:41;;;;;;;1.00;0.60;;;16.40;99.90;;;;;;5072543;28;20144;-92
2021/08/08 02:20:11;;;;;;;4.53;1.10;;;16.40;99.90;;;;;;5072298;28;20557;-92
2021/08/08 02:22:38;;;;;;;1.60;1.00;;;16.30;99.90;;;;;;5072742;28;20067;-91
2021/08/08 02:25:05;;;;;;;2.28;0.77;;;16.30;99.90;;;;;;5072463;28;20059;-91
2021/08/08 02:27:32;;;;;;;0.50;0.50;;;16.30;99.90;;;;;;5072471;28;20139;-92
2021/08/08 02:29:58;;;;;;;3.08;0.85;;;16.20;99.90;;;;;;5071992;28;20059;-93
2021/08/08 02:32:25;;;;;;;2.55;0.80;;;16.20;99.90;;;;;;5072389;28;20049;-92
2021/08/08 02:34:52;;;;;;;1.45;1.10;;;16.30;99.90;;;;;;5072327;28;20048;-92
2021/08/08 02:37:19;;;;;;;3.35;1.60;;;16.20;99.90;;;;;;5072505;28;20511;-92
2021/08/08 02:39:45;;;;;;;3.35;0.80;;;16.10;99.90;;;;;;5072451;28;20052;-91
2021/08/08 02:42:12;;;;;;;3.00;0.65;;;16.00;99.90;;;;;;5072270;28;20056;-92
2021/08/08 02:44:39;;;;;;;1.73;0.60;;;15.90;99.90;;;;;;5072046;28;20048;-92
2021/08/08 02:47:06;;;;;;;1.42;0.88;;;15.90;99.90;;;;;;5072280;28;20056;-91
2021/08/08 02:49:33;;;;;;;7.15;0.80;;;15.90;99.90;;;;;;5072251;28;20052;-92
2021/08/08 02:52:00;;;;;;;2.25;0.70;;;15.80;99.90;;;;;;5072276;28;20045;-92
2021/08/08 02:54:26;;;;;;;3.85;0.90;;;15.90;99.90;;;;;;5073149;28;20506;-92
2021/08/08 02:56:53;;;;;;;1.92;0.80;;;16.00;99.90;;;;;;5073348;28;20135;-92
2021/08/08 02:59:20;;;;;;;2.00;0.60;;;16.00;99.90;;;;;;5072410;28;20052;-91
2021/08/08 03:01:47;;;;;;;1.95;0.70;;;16.10;99.90;;;;;;5073816;28;20143;-94
2021/08/08 03:04:14;;;;;;;2.38;0.77;;;16.20;99.90;;;;;;5072806;28;20044;-94
2021/08/08 03:06:47;;;;;;;3.90;0.60;;;16.30;99.90;;;;;;5073921;28;20140;-92
2021/08/08 03:09:13;;;;;;;2.75;0.80;;;16.40;99.90;;;;;;5076439;28;20139;-93
2021/08/08 03:11:46;;;;;;;1.80;0.80;;;16.40;99.90;;;;;;5071762;28;20135;-93
2021/08/08 03:14:14;;;;;;;2.20;0.80;;;16.40;99.90;;;;;;5071992;28;20072;-93
2021/08/08 03:16:42;;;;;;;2.58;0.80;;;16.40;99.90;;;;;;5075560;28;20114;-94
2021/08/08 03:19:09;;;;;;;1.48;0.70;;;16.40;99.90;;;;;;5075530;28;20135;-93
2021/08/08 03:21:36;;;;;;;3.08;1.10;;;16.50;99.90;;;;;;5075757;28;20048;-91
2021/08/08 03:24:03;;;;;;;1.63;0.77;;;16.50;99.90;;;;;;5075389;28;20139;-92
2021/08/08 03:26:31;;;;;;;1.10;0.68;;;16.50;99.90;;;;;;5075661;28;20063;-93
2021/08/08 03:28:58;;;;;;;3.00;0.80;;;16.50;99.90;;;;;;5075456;28;20070;-93
2021/08/08 03:31:27;;;;;;;2.80;0.60;;;16.50;99.90;;;;;;5075470;28;20489;-93
2021/08/08 03:33:54;;;;;;;0.70;0.65;;;16.50;99.90;;;;;;5075494;28;20052;-92
2021/08/08 03:36:22;;;;;;;2.25;1.00;;;16.50;99.90;;;;;;5076539;28;20055;-94
2021/08/08 03:38:49;;;;;;;0.73;0.73;;;16.50;99.90;;;;;;5076103;28;20412;-95
2021/08/08 03:41:16;;;;;;;2.47;0.77;;;16.50;99.90;;;;;;5075444;28;20068;-93
2021/08/08 03:43:43;;;;;;;1.95;0.70;;;16.50;99.90;;;;;;5075825;28;20546;-94
2021/08/08 03:46:10;;;;;;;2.20;0.68;;;16.50;99.90;;;;;;5074964;28;20128;-94
2021/08/08 03:48:37;;;;;;;1.33;0.70;;;16.60;99.90;;;;;;5075310;28;20059;-93
2021/08/08 03:51:04;;;;;;;2.65;0.80;;;16.60;99.90;;;;;;5075444;28;20076;-93
2021/08/08 03:53:31;;;;;;;1.13;0.85;;;16.60;99.90;;;;;;5074928;28;20380;-93
2021/08/08 03:55:58;;;;;;;1.15;0.50;;;16.60;99.90;;;;;;5075017;28;20516;-94
2021/08/08 03:58:29;;;;;;;0.90;0.50;;;16.60;99.90;;;;;;5074906;28;20052;-93
2021/08/08 04:01:01;;;;;;;1.30;0.47;;;16.60;99.90;;;;;;5075448;28;20067;-92
2021/08/08 04:03:33;;;;;;;0.60;0.47;;;16.60;99.90;;;;;;5074991;28;20044;-93
2021/08/08 04:06:00;;;;;;;0.68;0.50;;;16.60;99.90;;;;;;5074796;28;20060;-91
2021/08/08 04:08:26;;;;;;;2.60;0.60;;;16.60;99.90;;;;;;5075103;28;20131;-93
2021/08/08 04:10:53;;;;;;;1.70;0.55;;;16.50;99.90;;;;;;5075258;28;20052;-92
2021/08/08 04:13:20;;;;;;;1.58;0.50;;;16.60;99.90;;;;;;5076643;28;20131;-91
2021/08/08 04:15:47;;;;;;;0.82;0.55;;;16.60;99.90;;;;;;5076933;28;20072;-92
2021/08/08 04:18:14;;;;;;;1.50;0.43;;;16.60;99.90;;;;;;5074445;28;20047;-92
2021/08/08 04:20:41;;;;;;;1.52;0.73;;;16.60;99.90;;;;;;5074647;28;20149;-91
2021/08/08 04:23:10;;;;;;;1.50;0.57;;;16.50;99.90;;;;;;5074534;28;20397;-92
2021/08/08 04:25:40;;;;;;;4.75;1.27;;;16.50;99.90;;;;;;5074987;28;20049;-92
2021/08/08 04:28:07;;;;;;;1.92;0.57;;;16.60;99.90;;;;;;5074612;28;20070;-93
2021/08/08 04:30:35;;;;;;;2.92;0.60;;;16.60;99.90;;;;;;5075417;28;20475;-94
2021/08/08 04:33:03;;;;;;;0.77;0.50;;;16.60;99.90;;;;;;5074512;28;20052;-94
2021/08/08 04:35:32;;;;;;;3.10;0.85;;;16.60;99.90;;;;;;5079935;28;20059;-89
2021/08/08 04:38:03;;;;;;;2.13;0.75;;;16.60;99.90;;;;;;5077675;28;20127;-91
2021/08/08 04:40:30;;;;;;;1.88;0.50;;;16.70;99.90;;;;;;5074881;28;20052;-94
2021/08/08 04:42:58;;;;;;;0.60;0.60;;;16.80;99.90;;;;;;5074881;28;20139;-95
2021/08/08 04:45:25;;;;;;;1.42;0.60;;;16.70;99.90;;;;;;5074328;28;20540;-92
2021/08/08 04:47:52;;;;;;;1.80;0.70;;;16.70;99.90;;;;;;5075248;28;20062;-91
2021/08/08 04:50:20;;;;;;;1.13;0.50;;;16.60;99.90;;;;;;5074690;28;20076;-94
2021/08/08 04:52:48;;;;;;;2.42;0.60;;;16.50;99.90;;;;;;5058461;28;20051;-91
2021/08/08 04:55:16;;;;;;;0.85;0.50;;;16.40;99.90;;;;;;5074237;28;20084;-93
2021/08/08 04:57:43;;;;;;;0.50;0.50;;;16.40;99.90;;;;;;5075096;28;20139;-93
2021/08/08 05:00:10;;;;;;;1.45;0.50;;;16.40;99.90;;;;;;5075114;28;20083;-90
2021/08/08 05:02:42;;;;;;;2.05;0.60;;;16.40;99.90;;;;;;5075526;28;20071;-93
2021/08/08 05:05:10;;;;;;;2.05;0.45;;;16.40;99.90;;;;;;5075102;28;20079;-92
2021/08/08 05:07:40;;;;;;;0.93;0.30;;;16.40;99.90;;;;;;5074217;28;20136;-93
2021/08/08 05:10:09;;;;;;;0.60;0.50;;;16.40;99.90;;;;;;5073817;28;20079;-91
2021/08/08 05:12:36;;;;;;;3.15;0.55;;;16.30;99.90;;;;;;5074696;28;20052;-96
2021/08/08 05:15:03;;;;;;;2.58;0.40;;;16.30;99.90;;;;;;5074333;28;20048;-91
2021/08/08 05:17:30;;;;;;;0.90;0.50;;;16.40;99.90;;;;;;5074237;28;20048;-89
2021/08/08 05:19:57;;;;;;;2.35;0.60;;;16.40;99.90;;;;;;5073068;28;20058;-93
2021/08/08 05:22:24;;;;;;;2.03;0.60;;;16.50;99.90;;;;;;5074222;28;20560;-92
2021/08/08 05:24:51;;;;;;;0.75;0.60;;;16.60;99.90;;;;;;5073925;28;20135;-92
2021/08/08 05:27:17;;;;;;;0.95;0.28;;;16.70;99.90;;;;;;5074007;28;20044;-91
2021/08/08 05:29:44;;;;;;;0.75;0.30;;;17.50;99.90;;;;;;5074370;28;20048;-93
2021/08/08 05:32:11;;;;;;;0.90;0.50;;;18.60;99.90;;;;;;5076729;28;20068;-93
2021/08/08 05:34:37;;;;;;;1.40;0.40;;;19.10;99.90;;;;;;5080026;28;20083;-90
2021/08/08 05:37:04;;;;;;;1.27;0.40;;;19.70;99.90;;;;;;5073467;28;20047;-91
2021/08/08 05:39:31;;;;;;;3.20;0.40;;;20.20;99.90;;;;;;5073971;28;20131;-92
2021/08/08 05:41:57;;;;;;;2.80;0.60;;;20.80;99.90;;;;;;5072349;28;20131;-90
2021/08/08 05:44:24;;;;;;;2.28;0.57;;;21.20;99.90;;;;;;5072342;28;20048;-92
2021/08/08 05:46:51;;;;;;;1.98;0.40;;;21.80;99.90;;;;;;5073065;28;20481;-91
2021/08/08 05:49:18;;;;;;;2.17;0.50;;;22.00;99.90;;;;;;5073467;28;20044;-92
2021/08/08 05:51:45;;;;;;;0.68;0.45;;;21.90;99.90;;;;;;5073055;28;20052;-89
2021/08/08 05:54:11;;;;;;;1.45;0.43;;;21.60;99.90;;;;;;5072928;28;20131;-90
2021/08/08 05:56:38;;;;;;;1.80;0.30;;;21.60;99.90;;;;;;5073237;28;20055;-91
2021/08/08 05:59:05;;;;;;;0.63;0.60;;;21.50;99.90;;;;;;5072848;28;20379;-93
2021/08/08 06:01:32;;;;;;;0.70;0.40;;;22.20;99.90;;;;;;5073150;28;20044;-91
2021/08/08 06:04:00;;;;;;;1.80;0.43;;;23.10;99.90;;;;;;5072640;28;20131;-91
2021/08/08 06:06:27;;;;;;;2.97;0.52;;;23.60;99.90;;;;;;5073528;28;20048;-90
2021/08/08 06:08:54;;;;;;;1.38;0.40;;;22.60;99.90;;;;;;5072870;28;20127;-89
2021/08/08 06:11:21;;;;;;;0.40;0.38;;;22.40;99.90;;;;;;5073110;28;20476;-90
2021/08/08 06:13:47;;;;;;;0.88;0.50;;;22.90;99.90;;;;;;5073182;28;20129;-90
2021/08/08 06:16:14;;;;;;;1.35;0.47;;;22.90;99.90;;;;;;5072291;28;20066;-90
2021/08/08 06:18:41;;;;;;;2.83;0.60;;;22.80;99.90;;;;;;5073090;28;20058;-90
2021/08/08 06:21:07;;;;;;;0.70;0.70;;;21.70;99.90;;;;;;5072337;28;20128;-93
2021/08/08 06:23:34;;;;;;;0.75;0.63;;;21.60;99.90;;;;;;5072522;28;20052;-94
2021/08/08 06:26:01;;;;;;;0.75;0.40;;;21.30;99.90;;;;;;5075063;28;20052;-90
2021/08/08 06:28:28;;;;;;;0.70;0.50;;;21.10;99.90;;;;;;5071955;28;20052;-95
2021/08/08 06:30:55;;;;;;;0.95;0.43;;;20.80;99.90;;;;;;5071800;28;20049;-90
2021/08/08 06:33:21;;;;;;;2.85;0.50;;;20.20;99.90;;;;;;5071758;28;20485;-91
2021/08/08 06:35:49;;;;;;;0.40;0.40;;;20.40;99.90;;;;;;5071622;28;20517;-91
2021/08/08 06:38:16;;;;;;;1.23;0.55;;;20.10;99.90;;;;;;5072436;28;20131;-94
2021/08/08 06:40:42;;;;;;;2.72;0.40;;;20.50;99.90;;;;;;5055593;28;20143;-90
2021/08/08 06:43:09;;;;;;;0.60;0.50;;;20.80;99.90;;;;;;5071853;28;20075;-90
2021/08/08 06:45:35;;;;;;;0.82;0.50;;;20.80;99.90;;;;;;5070926;28;20048;-91
2021/08/08 06:48:03;;;;;;;3.28;0.43;;;20.70;99.90;;;;;;5071644;28;20509;-90
2021/08/08 06:50:29;;;;;;;0.73;0.32;;;20.70;99.90;;;;;;5075152;28;20402;-91
2021/08/08 06:52:57;;;;;;;2.38;0.50;;;20.60;99.90;;;;;;5078122;28;20501;-90
2021/08/08 06:55:25;;;;;;;2.53;0.60;;;20.20;99.90;;;;;;5078041;28;20091;-91
2021/08/08 06:57:52;;;;;;;1.33;0.50;;;19.70;99.90;;;;;;5075917;28;20140;-88
2021/08/08 07:00:19;;;;;;;1.08;0.50;;;18.90;99.90;;;;;;5075363;28;20501;-88
2021/08/08 07:03:06;;;;;;;0.93;0.60;;;18.80;99.90;;;;;;5076181;28;20046;-91
2021/08/08 07:05:34;;;;;;;0.82;0.47;;;18.60;99.90;;;;;;5074318;28;20048;-90
2021/08/08 07:08:01;;;;;;;1.40;0.60;;;18.50;99.90;;;;;;5075035;28;20048;-91
2021/08/08 07:10:27;;;;;;;2.10;0.70;;;18.50;99.90;;;;;;5075851;28;20501;-89
2021/08/08 07:12:54;;;;;;;5.65;0.75;;;18.40;99.90;;;;;;5075786;28;20049;-92
2021/08/08 07:15:21;;;;;;;1.65;0.50;;;18.50;99.90;;;;;;5075404;28;20048;-89
2021/08/08 07:17:48;;;;;;;1.65;0.60;;;18.50;99.90;;;;;;5075595;28;20140;-89
2021/08/08 07:20:15;;;;;;;1.90;0.75;;;18.50;99.90;;;;;;5074941;28;20056;-91
2021/08/08 07:22:42;;;;;;;1.73;0.55;;;18.50;99.90;;;;;;5075607;28;20064;-91
2021/08/08 07:25:09;;;;;;;3.38;0.60;;;18.40;99.90;;;;;;5075088;28;20053;-89
2021/08/08 07:27:38;;;;;;;0.52;0.40;;;18.30;99.90;;;;;;5075413;28;20055;-89
2021/08/08 07:30:05;;;;;;;3.30;1.00;;;18.30;99.90;;;;;;5074755;28;20049;-90
2021/08/08 07:32:32;;;;;;;1.13;0.60;;;18.30;99.90;;;;;;5075098;28;20404;-90
2021/08/08 07:35:00;;;;;;;1.23;0.63;;;18.40;99.90;;;;;;5075249;28;20127;-90
2021/08/08 07:37:26;;;;;;;2.55;0.60;;;18.50;99.90;;;;;;5075406;28;20511;-90
2021/08/08 07:39:53;;;;;;;1.45;0.50;;;18.70;99.90;;;;;;5075501;28;20511;-90
2021/08/08 07:42:20;;;;;;;1.67;0.52;;;19.10;99.90;;;;;;5074948;28;20041;-90
2021/08/08 07:44:48;;;;;;;1.23;0.50;;;21.00;99.90;;;;;;5075126;28;20463;-92
2021/08/08 07:47:16;;;;;;;1.25;0.47;;;21.70;99.90;;;;;;5074637;28;20049;-90
2021/08/08 07:49:43;;;;;;;0.63;0.40;;;22.20;99.90;;;;;;5075067;28;20041;-90
2021/08/08 07:52:10;;;;;;;1.50;0.60;;;21.80;99.90;;;;;;5074801;28;20404;-90
2021/08/08 07:54:37;;;;;;;2.63;0.60;;;21.60;99.90;;;;;;5074917;28;20059;-92
2021/08/08 07:57:03;;;;;;;0.93;0.47;;;22.60;99.90;;;;;;5074933;28;20489;-89
2021/08/08 07:59:30;;;;;;;1.58;0.47;;;24.20;99.90;;;;;;5078108;28;20048;-90
2021/08/08 08:01:58;;;;;;;1.70;0.50;;;25.10;99.90;;;;;;5085116;28;20060;-86
2021/08/08 08:04:25;;;;;;;4.75;0.47;;;26.30;99.40;;;;;;5078916;28;20177;-93
2021/08/08 08:06:52;;;;;;;0.47;0.40;;;26.20;95.60;;;;;;5075389;28;20045;-92
2021/08/08 08:09:19;;;;;;;1.73;0.50;;;26.70;93.30;;;;;;5075655;28;20147;-91
2021/08/08 08:11:46;;;;;;;3.60;0.60;;;27.00;92.10;;;;;;5075874;28;20131;-92
2021/08/08 08:14:13;;;;;;;3.63;0.50;;;27.80;90.50;;;;;;5078133;28;20052;-92
2021/08/08 08:16:40;;;;;;;1.40;0.68;;;27.30;88.60;;;;;;5076154;28;20058;-90
2021/08/08 08:19:06;;;;;;;3.13;0.52;;;26.60;91.70;;;;;;5074246;28;20060;-88
2021/08/08 08:21:33;;;;;;;1.33;0.40;;;26.00;91.20;;;;;;5073625;28;20488;-92
2021/08/08 08:24:00;;;;;;;0.80;0.40;;;24.40;93.90;;;;;;5073957;28;20056;-91
2021/08/08 08:26:28;;;;;;;1.52;0.65;;;23.80;95.90;;;;;;5073609;28;20052;-92
2021/08/08 08:28:55;;;;;;;0.68;0.30;;;23.50;97.50;;;;;;5075631;28;20136;-91
2021/08/08 08:31:22;;;;;;;2.25;0.60;;;23.90;99.20;;;;;;5074353;28;20056;-89
2021/08/08 08:33:48;;;;;;;0.88;0.50;;;24.00;98.20;;;;;;5074568;28;20426;-89
2021/08/08 08:36:15;;;;;;;4.15;0.50;;;23.80;99.90;;;;;;5074122;28;20056;-92
2021/08/08 08:38:42;;;;;;;1.48;0.40;;;24.60;98.20;;;;;;5075143;28;20552;-88
2021/08/08 08:41:13;;;;;;;0.95;0.40;;;25.00;96.20;;;;;;5074321;28;20048;-91
2021/08/08 08:43:41;;;;;;;4.80;0.57;;;25.50;95.50;;;;;;5074266;28;20076;-90
2021/08/08 08:46:10;;;;;;;0.68;0.60;;;26.80;94.00;;;;;;5074079;28;20055;-90
2021/08/08 08:48:37;;;;;;;0.95;0.30;;;27.80;90.60;;;;;;5074208;28;20460;-90
2021/08/08 08:51:05;;;;;;;0.40;0.35;;;28.70;90.30;;;;;;5073783;28;20048;-88
2021/08/08 08:53:32;;;;;;;1.27;0.40;;;27.70;89.40;;;;;;5073970;28;20048;-87
2021/08/08 08:56:01;;;;;;;1.17;0.50;;;28.70;89.70;;;;;;5074580;28;20150;-90
2021/08/08 08:58:28;;;;;;;2.85;0.50;;;28.80;85.30;;;;;;5074416;28;20048;-89
2021/08/08 09:00:55;;;;;;;0.77;0.30;;;30.20;81.80;;;;;;5073970;28;20049;-89
2021/08/08 09:03:22;;;;;;;3.42;0.38;;;30.50;72.30;;;;;;5073761;28;20469;-89
2021/08/08 09:05:49;;;;;;;1.27;0.40;;;28.40;78.00;;;;;;5074236;28;20552;-91
2021/08/08 09:08:16;;;;;;;2.42;0.50;;;28.00;76.20;;;;;;5073827;28;20075;-90
2021/08/08 09:11:04;;;;;;;0.77;0.40;;;28.30;76.70;;;;;;5073879;28;20058;-89
2021/08/08 09:13:31;;;;;;;0.85;0.40;;;27.10;79.50;;;;;;5072786;28;20072;-88
2021/08/08 09:15:59;;;;;;;2.15;0.50;;;25.60;81.40;;;;;;5073716;28;20079;-90
2021/08/08 09:18:26;;;;;;;2.28;0.50;;;24.90;85.40;;;;;;5073698;28;20128;-96
2021/08/08 09:20:53;;;;;;;1.40;0.55;;;25.10;84.60;;;;;;5075586;28;20063;-92
2021/08/08 09:23:20;;;;;;;1.60;0.60;;;25.80;83.80;;;;;;5073759;28;20139;-88
2021/08/08 09:25:56;;;;;;;3.10;0.50;;;27.30;82.60;;;;;;5073446;28;20056;-89
2021/08/08 09:28:30;;;;;;;1.00;0.40;;;29.10;78.90;;;;;;5074072;28;20378;-90
2021/08/08 09:30:58;;;;;;;1.23;0.40;;;29.40;77.30;;;;;;5073374;28;20075;-91
2021/08/08 09:33:27;;;;;;;1.92;0.47;;;30.00;73.30;;;;;;5075933;28;20059;-91
2021/08/08 09:35:55;;;;;;;1.75;0.80;;;30.90;69.70;;;;;;5074899;28;20052;-89
2021/08/08 09:38:22;;;;;;;2.15;0.47;;;31.90;68.90;;;;;;5073498;28;20078;-93
2021/08/08 09:41:00;;;;;;;2.70;0.60;;;31.50;66.70;;;;;;5074068;28;20063;-92
2021/08/08 09:43:29;;;;;;;4.93;0.50;;;29.60;69.00;;;;;;5073944;28;20058;-89
2021/08/08 09:45:56;;;;;;;2.35;0.70;;;28.50;69.90;;;;;;5073084;28;20055;-89
2021/08/08 09:48:38;;;;;;;2.15;0.70;;;29.50;73.50;;;;;;5072731;28;20147;-89
2021/08/08 09:51:06;;;;;;;0.88;0.35;;;30.50;71.80;;;;;;5073596;28;20051;-91
2021/08/08 09:53:33;;;;;;;5.32;0.80;;;30.30;66.10;;;;;;5073781;28;20044;-95
2021/08/08 09:56:03;;;;;;;4.03;0.63;;;30.20;65.20;;;;;;5073691;28;20078;-92
2021/08/08 09:58:38;;;;;;;0.82;0.30;;;30.00;64.80;;;;;;5073696;28;20557;-92
2021/08/08 10:01:05;;;;;;;0.88;0.32;;;29.60;65.20;;;;;;5073674;28;20094;-90
2021/08/08 10:03:33;;;;;;;0.30;0.30;;;29.90;66.10;;;;;;5073700;28;20048;-92
2021/08/08 10:06:01;;;;;;;4.40;0.85;;;29.50;69.10;;;;;;5073722;28;20091;-90
2021/08/08 10:08:28;;;;;;;1.50;0.55;;;29.60;69.30;;;;;;5073257;28;20164;-92
2021/08/08 10:10:57;;;;;;;1.23;0.55;;;29.90;67.80;;;;;;5073257;28;20485;-92
2021/08/08 10:13:36;;;;;;;4.68;0.85;;;29.60;70.30;;;;;;5072906;28;20045;-89
2021/08/08 10:16:05;;;;;;;2.00;0.40;;;32.30;67.40;;;;;;5073036;28;20051;-86
2021/08/08 10:18:38;;;;;;;2.65;0.47;;;32.20;63.30;;;;;;5073091;28;20118;-90
2021/08/08 10:21:07;;;;;;;0.40;0.40;;;29.90;64.80;;;;;;5073043;28;20132;-88
2021/08/08 10:23:35;;;;;;;2.00;0.43;;;28.00;65.80;;;;;;5072532;28;20052;-89
2021/08/08 10:26:02;;;;;;;2.10;0.38;;;26.60;71.80;;;;;;5077350;28;20489;-89
2021/08/08 10:28:29;;;;;;;3.63;0.60;;;25.90;76.00;;;;;;5079974;28;20139;-90
2021/08/08 10:31:02;;;;;;;2.65;0.73;;;25.50;76.30;;;;;;5076979;28;20054;-87
2021/08/08 10:33:29;;;;;;;5.40;0.60;;;25.10;79.20;;;;;;5072797;28;20059;-86
2021/08/08 10:35:56;;;;;;;1.10;0.60;;;24.40;81.30;;;;;;5072590;28;20109;-89
2021/08/08 10:38:23;;;;;;;1.90;0.75;;;23.70;81.50;;;;;;5072397;28;20493;-90
2021/08/08 10:40:49;;;;;;;1.60;0.40;;;23.00;85.00;;;;;;5072393;28;20059;-91
2021/08/08 10:43:27;;;;;;;2.25;0.60;;;22.30;90.10;;;;;;5072597;28;20045;-88
2021/08/08 10:46:09;;;;;;;2.67;0.60;;;21.80;92.20;;;;;;5072355;28;20056;-87
2021/08/08 10:48:39;;;;;;;1.48;0.45;;;21.70;94.40;;;;;;5072432;28;20501;-88
2021/08/08 10:51:17;;;;;;;1.77;0.50;;;23.30;95.60;;;;;;5072218;28;20054;-89
2021/08/08 10:53:44;;;;;;;2.22;0.52;;;25.70;90.30;;;;;;5072543;28;20052;-88
2021/08/08 10:56:12;;;;;;;9.30;1.90;;;27.40;86.30;;;;;;5072311;28;20040;-87
2021/08/08 10:58:41;;;;;;;1.02;0.50;;;27.10;80.80;;;;;;5072320;28;20531;-86
2021/08/08 11:01:18;;;;;;;0.95;0.50;;;28.30;78.70;;;;;;5072103;28;20476;-90
2021/08/08 11:03:57;;;;;;;1.27;0.43;;;29.50;75.00;;;;;;5072738;28;20413;-90
2021/08/08 11:06:27;;;;;;;2.67;0.60;;;28.00;71.10;;;;;;5071797;28;20078;-88
2021/08/08 11:09:18;;;;;;;3.38;0.68;;;26.70;76.00;;;;;;5133978;22;20100;-88
2021/08/08 11:12:08;;;;;;;1.42;0.73;;;25.00;77.60;;;;;;5011465;28;20085;-89
2021/08/08 11:14:45;;;;;;;1.33;0.47;;;23.90;82.00;;;;;;5032315;23;20053;-89
2021/08/08 11:17:24;;;;;;;3.15;0.85;;;22.90;90.20;;;;;;5031081;28;20034;-87
2021/08/08 11:19:51;;;;;;;1.63;0.68;;;21.90;93.30;;;;;;5032685;28;20129;-87
2021/08/08 11:22:19;;;;;;;2.75;0.80;;;21.20;99.90;;;;;;5022930;28;20081;-86
2021/08/08 11:25:06;;;;;;;3.83;0.68;;;20.90;99.90;;;;;;5014692;28;20046;-86
2021/08/08 11:27:39;;;;;;;2.15;0.70;;;21.40;99.90;;;;;;5012493;28;20546;-86
2021/08/08 11:30:11;;;;;;;1.67;0.80;;;22.00;99.90;;;;;;5017306;28;20081;-87
2021/08/08 11:32:40;;;;;;;7.00;0.90;;;22.50;99.90;;;;;;5014662;28;20084;-86
2021/08/08 11:35:10;;;;;;;1.23;1.00;;;23.10;99.90;;;;;;5014429;28;20050;-87
2021/08/08 11:37:46;;;;;;;2.83;0.40;;;24.50;98.20;;;;;;5018511;28;20427;-87
2021/08/08 11:40:18;;;;;;;3.03;0.88;;;25.60;94.00;;;;;;5018339;28;20053;-83
2021/08/08 11:42:46;;;;;;;6.57;1.10;;;25.10;90.90;;;;;;5017655;28;20136;-87
2021/08/08 11:45:13;;;;;;;2.20;0.80;;;24.50;93.10;;;;;;5018028;28;20109;-86
2021/08/08 11:47:40;;;;;;;2.05;0.65;;;24.20;92.40;;;;;;5017497;28;20108;-87
2021/08/08 11:50:07;;;;;;;3.10;0.65;;;24.30;92.80;;;;;;5017060;28;20053;-87
2021/08/08 11:52:36;;;;;;;1.55;0.60;;;24.60;91.80;;;;;;5016143;28;20050;-86
2021/08/08 11:55:07;;;;;;;1.10;0.60;;;24.70;93.60;;;;;;5018035;28;20132;-87
2021/08/08 11:57:38;;;;;;;3.97;0.90;;;24.40;91.00;;;;;;5017262;28;20104;-86
2021/08/08 12:00:06;;;;;;;3.88;0.65;;;23.70;91.60;;;;;;5016485;28;20534;-87
2021/08/08 12:02:33;;;;;;;0.70;0.40;;;23.00;93.70;;;;;;5016091;28;20050;-89
2021/08/08 12:05:01;;;;;;;1.15;0.70;;;22.30;95.50;;;;;;5016439;28;20076;-86
2021/08/08 12:07:28;;;;;;;4.00;0.82;;;21.80;98.90;;;;;;5015505;28;20142;-87
2021/08/08 12:09:56;;;;;;;1.25;0.50;;;21.80;99.90;;;;;;5015380;28;20046;-86
2021/08/08 12:12:36;;;;;;;2.30;0.70;;;22.40;99.90;;;;;;5017173;28;20077;-86
2021/08/08 12:15:06;;;;;;;1.67;0.60;;;23.20;99.40;;;;;;5015842;28;20137;-88
2021/08/08 12:17:33;;;;;;;0.80;0.60;;;23.70;95.60;;;;;;5019405;28;20046;-88
2021/08/08 12:20:11;;;;;;;1.83;0.70;;;24.00;93.90;;;;;;5017972;28;20041;-86
2021/08/08 12:22:38;;;;;;;2.08;0.80;;;24.10;93.80;;;;;;5016262;28;20491;-89
2021/08/08 12:25:09;;;;;;;2.33;0.70;;;24.00;92.60;;;;;;5015575;28;20141;-86
2021/08/08 12:27:39;;;;;;;2.40;0.85;;;24.00;92.70;;;;;;5014496;28;20104;-83
2021/08/08 12:30:10;;;;;;;2.90;0.47;;;23.90;90.40;;;;;;5014038;28;20057;-86
2021/08/08 12:32:42;;;;;;;3.25;0.55;;;23.80;92.70;;;;;;5014675;28;20077;-86
2021/08/08 12:35:13;;;;;;;2.58;0.63;;;24.10;92.40;;;;;;5014968;28;20132;-87
2021/08/08 12:37:42;;;;;;;2.90;0.60;;;23.80;91.40;;;;;;5015268;28;20088;-87
2021/08/08 12:40:17;;;;;;;1.52;0.57;;;23.50;92.20;;;;;;5014602;28;20106;-85
2021/08/08 12:42:44;;;;;;;2.10;0.60;;;23.20;91.80;;;;;;5014710;28;20145;-86
2021/08/08 12:45:16;;;;;;;8.02;0.95;;;23.00;92.30;;;;;;5014933;28;20137;-87
2021/08/08 12:47:59;;;;;;;1.38;0.80;;;23.10;93.20;;;;;;5021932;28;20578;-86
2021/08/08 12:50:26;;;;;;;1.25;0.52;;;23.50;93.50;;;;;;5015906;28;20069;-86
2021/08/08 12:52:53;;;;;;;3.13;0.63;;;23.70;92.40;;;;;;5019450;28;20074;-87
2021/08/08 12:55:22;;;;;;;1.60;0.77;;;23.70;93.40;;;;;;5016870;28;20129;-87